Time;durP1;ratioP1;P1;durP2;ratioP2;P2;SDS_P1;SDS_P2;PMS_P1;PMS_P2;Temp;Humidity;BMP_temperature;BMP_pressure;BME280_temperature;BME280_humidity;BME280_pressure;Samples;Min_cycle;Max_cycle;Signal;HPM_P1;HPM_P2
2022/07/02 00:01:05;;;;;;;;;;;;;;;20.88;48.20;101739.59;7280214;19;152711;-81
2022/07/02 00:03:33;;;;;;;;;;;;;;;20.87;48.48;101738.78;7282738;19;153992;-81
2022/07/02 00:06:01;;;;;;;;;;;;;;;20.79;48.66;101734.63;7282734;19;153833;-81
2022/07/02 00:08:31;;;;;;;;;;;;;;;20.76;49.19;101737.16;7285945;19;152458;-80
2022/07/02 00:10:58;;;;;;;;;;;;;;;20.75;49.43;101741.94;7285532;19;152778;-80
2022/07/02 00:13:25;;;;;;;;;;;;;;;20.78;49.16;101734.91;7294653;19;153551;-80
2022/07/02 00:15:52;;;;;;;;;;;;;;;20.70;49.44;101739.16;7285377;19;153095;-81
2022/07/02 00:18:19;;;;;;;;;;;;;;;20.75;49.29;101735.50;7285452;19;153541;-80
2022/07/02 00:20:47;;;;;;;;;;;;;;;20.80;49.33;101729.84;7285155;19;152347;-81
2022/07/02 00:23:13;;;;;;;;;;;;;;;20.78;49.51;101730.13;7286699;19;154024;-81
2022/07/02 00:25:47;;;;;;;;;;;;;;;20.88;49.52;101725.56;7283330;19;153502;-81
2022/07/02 00:28:15;;;;;;;;;;;;;;;20.93;49.56;101723.56;7287040;19;152444;-80
2022/07/02 00:30:44;;;;;;;;;;;;;;;20.97;49.17;101724.66;7286795;19;152595;-80
2022/07/02 00:33:15;;;;;;;;;;;;;;;20.83;49.94;101727.28;7285223;19;156713;-81
2022/07/02 00:35:43;;;;;;;;;;;;;;;20.89;50.01;101724.44;7290984;19;152621;-81
2022/07/02 00:38:10;;;;;;;;;;;;;;;20.96;49.89;101713.69;7285575;19;153219;-81
2022/07/02 00:40:37;;;;;;;;;;;;;;;20.89;49.89;101711.25;7286708;19;154715;-80
2022/07/02 00:43:04;;;;;;;;;;;;;;;20.84;50.52;101712.13;7283845;19;153316;-81
2022/07/02 00:45:32;;;;;;;;;;;;;;;20.85;50.03;101718.53;7283448;19;152987;-80
2022/07/02 00:48:00;;;;;;;;;;;;;;;20.90;50.33;101710.09;7286715;19;151859;-81
2022/07/02 00:50:27;;;;;;;;;;;;;;;20.83;50.24;101702.00;7281752;19;152254;-81
2022/07/02 00:52:54;;;;;;;;;;;;;;;20.89;50.73;101704.78;7283666;19;152571;-81
2022/07/02 00:55:21;;;;;;;;;;;;;;;20.82;50.56;101707.91;7286067;19;152149;-80
2022/07/02 00:57:48;;;;;;;;;;;;;;;20.89;50.82;101699.16;7291055;19;153208;-81
2022/07/02 01:00:15;;;;;;;;;;;;;;;20.91;50.91;101692.09;7283304;19;152112;-81
2022/07/02 01:02:43;;;;;;;;;;;;;;;20.93;51.12;101689.84;7284575;19;153320;-81
2022/07/02 01:05:13;;;;;;;;;;;;;;;20.89;50.97;101688.75;7280882;19;154399;-81
2022/07/02 01:07:40;;;;;;;;;;;;;;;20.98;50.81;101691.78;7285863;19;152333;-81
2022/07/02 01:10:17;;;;;;;;;;;;;;;20.96;50.91;101696.84;7285138;19;153304;-81
2022/07/02 01:12:48;;;;;;;;;;;;;;;20.96;51.08;101697.69;7284716;19;153421;-81
2022/07/02 01:15:17;;;;;;;;;;;;;;;20.93;51.31;101684.25;7284518;19;152504;-81
2022/07/02 01:17:44;;;;;;;;;;;;;;;20.97;51.61;101690.09;7286156;19;152200;-81
2022/07/02 01:20:11;;;;;;;;;;;;;;;21.01;51.14;101685.56;7283768;19;155168;-81
2022/07/02 01:22:38;;;;;;;;;;;;;;;20.96;51.87;101692.06;7285448;19;153641;-80
2022/07/02 01:25:06;;;;;;;;;;;;;;;20.92;51.72;101681.72;7281692;19;153708;-81
2022/07/02 01:27:33;;;;;;;;;;;;;;;20.97;51.72;101688.13;7286796;19;152294;-80
2022/07/02 01:30:00;;;;;;;;;;;;;;;20.99;51.65;101680.22;7284835;19;153269;-81
2022/07/02 01:32:27;;;;;;;;;;;;;;;20.97;51.39;101678.88;7283123;19;153800;-80
2022/07/02 01:35:01;;;;;;;;;;;;;;;20.96;51.74;101691.22;7281580;19;151832;-81
2022/07/02 01:37:27;;;;;;;;;;;;;;;20.99;51.46;101680.22;7284396;19;154347;-80
2022/07/02 01:39:57;;;;;;;;;;;;;;;20.96;51.92;101682.78;7288496;19;154497;-81
2022/07/02 01:42:24;;;;;;;;;;;;;;;20.99;51.97;101687.81;7286395;19;152475;-81
2022/07/02 01:44:51;;;;;;;;;;;;;;;20.98;52.12;101691.78;7282295;19;154384;-80
2022/07/02 01:47:19;;;;;;;;;;;;;;;20.98;52.22;101683.34;7284944;19;152490;-80
2022/07/02 01:49:46;;;;;;;;;;;;;;;20.98;52.21;101681.38;7283181;19;153573;-80
2022/07/02 01:52:14;;;;;;;;;;;;;;;20.99;52.05;101679.38;7281398;19;153618;-80
2022/07/02 01:54:41;;;;;;;;;;;;;;;21.04;51.92;101676.53;7284957;19;152541;-80
2022/07/02 01:57:08;;;;;;;;;;;;;;;21.00;52.36;101679.09;7282091;19;153314;-81
2022/07/02 01:59:35;;;;;;;;;;;;;;;21.05;51.78;101672.59;7280316;19;153018;-80
2022/07/02 02:02:03;;;;;;;;;;;;;;;21.01;52.01;101674.31;7291634;19;152298;-80
2022/07/02 02:04:29;;;;;;;;;;;;;;;20.99;52.06;101676.56;7282580;19;153261;-81
2022/07/02 02:06:56;;;;;;;;;;;;;;;21.06;52.20;101671.47;7278863;19;152659;-81
2022/07/02 02:09:23;;;;;;;;;;;;;;;20.98;52.81;101672.97;7283606;19;152735;-81
2022/07/02 02:11:49;;;;;;;;;;;;;;;20.95;52.89;101667.06;7281361;19;154400;-81
2022/07/02 02:14:16;;;;;;;;;;;;;;;21.00;53.00;101669.84;7283532;19;152364;-81
2022/07/02 02:16:43;;;;;;;;;;;;;;;20.98;53.06;101672.13;7284628;19;153362;-81
2022/07/02 02:19:10;;;;;;;;;;;;;;;20.88;53.19;101677.81;7281897;19;153663;-80
2022/07/02 02:21:37;;;;;;;;;;;;;;;20.92;53.17;101678.91;7277859;19;152163;-81
2022/07/02 02:24:04;;;;;;;;;;;;;;;20.87;53.17;101668.53;7290382;19;152033;-81
2022/07/02 02:26:31;;;;;;;;;;;;;;;20.83;53.61;101668.28;7278534;19;153996;-81
2022/07/02 02:28:58;;;;;;;;;;;;;;;20.80;53.63;101663.25;7284684;19;152724;-80
2022/07/02 02:31:25;;;;;;;;;;;;;;;20.83;53.11;101659.88;7282482;19;153500;-81
2022/07/02 02:33:52;;;;;;;;;;;;;;;20.78;53.98;101653.44;7280283;19;151791;-80
2022/07/02 02:36:18;;;;;;;;;;;;;;;20.84;53.44;101658.75;7281124;19;153992;-81
2022/07/02 02:38:46;;;;;;;;;;;;;;;20.90;53.27;101658.69;7281699;19;153895;-80
2022/07/02 02:41:13;;;;;;;;;;;;;;;20.93;53.37;101664.56;7283412;19;151956;-81
2022/07/02 02:43:40;;;;;;;;;;;;;;;20.99;53.16;101668.16;7282996;19;152939;-80
2022/07/02 02:46:07;;;;;;;;;;;;;;;20.98;53.46;101663.69;7289080;19;154098;-81
2022/07/02 02:48:35;;;;;;;;;;;;;;;20.92;53.73;101665.69;7282215;19;152752;-80
2022/07/02 02:51:03;;;;;;;;;;;;;;;20.92;53.42;101662.88;7278962;19;153826;-81
2022/07/02 02:53:30;;;;;;;;;;;;;;;20.90;53.77;101664.28;7281381;19;152938;-81
2022/07/02 02:55:58;;;;;;;;;;;;;;;20.95;53.52;101655.81;7282559;19;152374;-81
2022/07/02 02:58:25;;;;;;;;;;;;;;;20.94;53.80;101657.78;7282443;19;154488;-81
2022/07/02 03:00:51;;;;;;;;;;;;;;;20.95;53.34;101658.63;7277982;19;152372;-81
2022/07/02 03:03:19;;;;;;;;;;;;;;;20.98;53.31;101660.88;7281444;19;152342;-81
2022/07/02 03:05:45;;;;;;;;;;;;;;;20.95;53.69;101655.81;7278188;19;154386;-79
2022/07/02 03:08:12;;;;;;;;;;;;;;;20.92;53.67;101654.47;7290096;19;152644;-80
2022/07/02 03:10:40;;;;;;;;;;;;;;;20.88;53.99;101667.41;7279493;19;153194;-81
2022/07/02 03:13:06;;;;;;;;;;;;;;;20.97;53.44;101659.19;7282973;19;152079;-81
2022/07/02 03:15:33;;;;;;;;;;;;;;;20.91;53.78;101661.19;7281553;19;153558;-80
2022/07/02 03:18:00;;;;;;;;;;;;;;;20.91;53.66;101661.19;7279905;19;153886;-82
2022/07/02 03:20:31;;;;;;;;;;;;;;;20.99;53.71;101657.75;7276270;19;151762;-81
2022/07/02 03:22:58;;;;;;;;;;;;;;;20.98;53.70;101660.88;7281900;19;153288;-81
2022/07/02 03:25:26;;;;;;;;;;;;;;;20.92;53.86;101659.25;7280648;19;155150;-82
2022/07/02 03:27:52;;;;;;;;;;;;;;;20.83;54.22;101659.03;7289608;19;152164;-81
2022/07/02 03:30:24;;;;;;;;;;;;;;;20.85;54.51;101667.97;7280418;19;153543;-81
2022/07/02 03:32:51;;;;;;;;;;;;;;;20.96;54.17;101660.31;7283428;19;154503;-82
2022/07/02 03:35:18;;;;;;;;;;;;;;;20.97;54.00;101664.81;7276758;19;153420;-82
2022/07/02 03:37:45;;;;;;;;;;;;;;;20.99;53.87;101665.34;7278606;19;152701;-81
2022/07/02 03:40:11;;;;;;;;;;;;;;;20.97;54.12;101662.00;7278925;19;152286;-82
2022/07/02 03:42:38;;;;;;;;;;;;;;;20.97;53.74;101664.81;7280613;19;154628;-82
2022/07/02 03:45:05;;;;;;;;;;;;;;;20.96;54.11;101663.97;7277216;19;152556;-82
2022/07/02 03:47:32;;;;;;;;;;;;;;;20.92;54.22;101660.06;7278890;19;152016;-83
2022/07/02 03:49:59;;;;;;;;;;;;;;;20.94;54.48;101654.97;7285431;19;153007;-81
2022/07/02 03:52:26;;;;;;;;;;;;;;;20.96;54.42;101660.31;7277471;19;152073;-82
2022/07/02 03:54:52;;;;;;;;;;;;;;;20.83;54.15;101657.06;7280507;19;153393;-82
2022/07/02 03:57:19;;;;;;;;;;;;;;;20.85;54.50;101660.41;7279585;19;153754;-82
2022/07/02 03:59:46;;;;;;;;;;;;;;;20.91;54.77;101663.16;7280456;19;151985;-82
2022/07/02 04:02:13;;;;;;;;;;;;;;;20.86;54.60;101661.25;7275800;19;153349;-82
2022/07/02 04:04:40;;;;;;;;;;;;;;;20.84;54.75;101666.34;7280524;19;154253;-81
2022/07/02 04:07:07;;;;;;;;;;;;;;;20.87;54.85;101665.72;7276823;19;152905;-82
2022/07/02 04:09:34;;;;;;;;;;;;;;;20.96;54.25;101663.13;7281453;19;153065;-82
2022/07/02 04:12:01;;;;;;;;;;;;;;;20.86;54.83;101664.91;7287649;19;154023;-82
2022/07/02 04:14:28;;;;;;;;;;;;;;;20.86;54.55;101664.06;7281766;19;153943;-82
2022/07/02 04:16:54;;;;;;;;;;;;;;;20.86;54.45;101661.25;7278412;19;154109;-82
2022/07/02 04:19:21;;;;;;;;;;;;;;;20.80;54.61;101665.25;7277561;19;151940;-81
2022/07/02 04:21:48;;;;;;;;;;;;;;;20.86;54.37;101667.69;7276613;19;153711;-81
2022/07/02 04:24:15;;;;;;;;;;;;;;;20.90;54.49;101667.09;7279052;19;153205;-82
2022/07/02 04:26:41;;;;;;;;;;;;;;;20.91;54.56;101658.41;7277782;19;152112;-82
2022/07/02 04:29:08;;;;;;;;;;;;;;;20.89;54.60;101665.44;7280696;19;153329;-82
2022/07/02 04:31:35;;;;;;;;;;;;;;;20.90;54.61;101667.94;7277833;19;154124;-81
2022/07/02 04:34:02;;;;;;;;;;;;;;;20.82;54.62;101669.41;7286153;19;151841;-81
2022/07/02 04:36:28;;;;;;;;;;;;;;;20.87;54.32;101660.13;7277198;19;153996;-81
2022/07/02 04:38:55;;;;;;;;;;;;;;;20.94;54.54;101671.84;7280229;19;152156;-81
2022/07/02 04:41:22;;;;;;;;;;;;;;;20.86;54.57;101672.47;7274216;19;152744;-81
2022/07/02 04:43:48;;;;;;;;;;;;;;;20.91;54.32;101665.97;7279039;19;153198;-81
2022/07/02 04:46:15;;;;;;;;;;;;;;;20.90;54.88;101676.38;7278497;19;152402;-82
2022/07/02 04:48:42;;;;;;;;;;;;;;;20.90;54.40;101675.53;7279455;19;154574;-81
2022/07/02 04:51:09;;;;;;;;;;;;;;;20.88;54.81;101669.38;7282263;19;153632;-81
2022/07/02 04:53:35;;;;;;;;;;;;;;;20.94;54.46;101674.66;7284618;19;151964;-81
2022/07/02 04:56:02;;;;;;;;;;;;;;;20.95;54.66;101679.16;7292349;19;152601;-81
2022/07/02 04:58:29;;;;;;;;;;;;;;;20.88;54.74;101675.00;7284044;19;154204;-82
2022/07/02 05:00:55;;;;;;;;;;;;;;;20.98;54.76;101677.75;7282631;19;153368;-81
2022/07/02 05:03:22;;;;;;;;;;;;;;;20.96;54.35;101668.75;7284865;19;154605;-81
2022/07/02 05:05:49;;;;;;;;;;;;;;;20.92;54.58;101676.09;7281120;19;152465;-82
2022/07/02 05:08:16;;;;;;;;;;;;;;;20.89;54.70;101671.06;7286106;19;152769;-82
2022/07/02 05:10:42;;;;;;;;;;;;;;;20.83;54.91;101665.50;7284531;19;154079;-81
2022/07/02 05:13:09;;;;;;;;;;;;;;;20.83;55.40;101676.72;7287174;19;151723;-81
2022/07/02 05:15:42;;;;;;;;;;;;;;;20.96;54.62;101671.56;7286867;19;153757;-81
2022/07/02 05:18:09;;;;;;;;;;;;;;;20.94;54.61;101669.03;7289657;19;153876;-81
2022/07/02 05:20:35;;;;;;;;;;;;;;;21.00;54.45;101667.88;7280414;19;152681;-81
2022/07/02 05:23:02;;;;;;;;;;;;;;;20.99;54.23;101669.00;7283876;19;155999;-81
2022/07/02 05:25:29;;;;;;;;;;;;;;;21.00;54.37;101661.41;7283754;19;152237;-82
2022/07/02 05:27:55;;;;;;;;;;;;;;;21.00;54.17;101670.69;7287045;19;152604;-82
2022/07/02 05:30:25;;;;;;;;;;;;;;;20.96;54.37;101671.56;7283878;19;153504;-81
2022/07/02 05:32:52;;;;;;;;;;;;;;;20.93;54.46;101663.72;7282812;19;153478;-81
2022/07/02 05:35:18;;;;;;;;;;;;;;;20.84;54.95;101671.94;7281574;19;153544;-82
2022/07/02 05:37:45;;;;;;;;;;;;;;;20.85;54.87;101665.19;7289264;19;154169;-82
2022/07/02 05:40:12;;;;;;;;;;;;;;;20.91;54.92;101671.59;7284689;19;153984;-81
2022/07/02 05:42:38;;;;;;;;;;;;;;;20.91;54.85;101674.41;7285073;19;153445;-81
2022/07/02 05:45:05;;;;;;;;;;;;;;;20.90;54.54;101675.53;7282869;19;152010;-82
2022/07/02 05:47:32;;;;;;;;;;;;;;;20.88;55.05;101672.19;7283965;19;154109;-82
2022/07/02 05:49:59;;;;;;;;;;;;;;;20.92;54.74;101679.75;7281972;19;154321;-82
2022/07/02 05:52:26;;;;;;;;;;;;;;;20.91;54.24;101672.44;7284133;19;151523;-81
2022/07/02 05:54:52;;;;;;;;;;;;;;;20.98;54.22;101672.13;7283617;19;152882;-81
2022/07/02 05:57:19;;;;;;;;;;;;;;;20.89;54.38;101680.34;7282566;19;152640;-81
2022/07/02 05:59:46;;;;;;;;;;;;;;;20.94;54.68;101683.09;7292070;19;151953;-81
2022/07/02 06:02:12;;;;;;;;;;;;;;;20.92;54.59;101678.91;7278754;19;154744;-81
2022/07/02 06:04:39;;;;;;;;;;;;;;;20.90;54.84;101670.75;7283626;19;152592;-81
2022/07/02 06:09:52;;;;;;;;;;;;;;;20.84;54.91;101677.56;7283634;19;153734;-82
2022/07/02 06:12:19;;;;;;;;;;;;;;;20.81;55.07;101678.97;7280480;19;151838;-82
2022/07/02 06:14:45;;;;;;;;;;;;;;;20.75;55.52;101676.50;7283148;19;153641;-82
2022/07/02 06:17:12;;;;;;;;;;;;;;;20.83;55.00;101673.91;7282419;19;154606;-82
2022/07/02 06:19:39;;;;;;;;;;;;;;;20.81;54.68;101689.38;7282772;19;152077;-82
2022/07/02 06:22:06;;;;;;;;;;;;;;;20.80;54.79;101677.28;7286302;19;153124;-82
2022/07/02 06:24:32;;;;;;;;;;;;;;;20.85;54.81;101684.84;7283465;19;153137;-82
2022/07/02 06:26:59;;;;;;;;;;;;;;;20.79;55.18;101686.03;7281868;19;154230;-82
2022/07/02 06:29:27;;;;;;;;;;;;;;;20.96;54.47;101685.59;7284068;19;153917;-81
2022/07/02 06:31:53;;;;;;;;;;;;;;;20.94;54.57;101682.28;7281467;19;153955;-82
2022/07/02 06:34:20;;;;;;;;;;;;;;;20.89;54.53;101673.88;7283215;19;153947;-82
2022/07/02 06:36:47;;;;;;;;;;;;;;;20.92;54.85;101679.75;7278286;19;153434;-82
2022/07/02 06:39:14;;;;;;;;;;;;;;;20.88;54.70;101675.00;7284699;19;152200;-82
2022/07/02 06:44:26;;;;;;;;;;;;;;;20.88;54.71;101677.81;7290870;19;153339;-81
2022/07/02 06:46:52;;;;;;;;;;;;;;;20.89;54.53;101679.50;7283425;19;155318;-81
2022/07/02 06:49:19;;;;;;;;;;;;;;;20.89;54.40;101693.53;7279693;19;153673;-82
2022/07/02 06:51:46;;;;;;;;;;;;;;;20.86;54.48;101687.38;7280331;19;152283;-82
2022/07/02 06:54:18;;;;;;;;;;;;;;;20.92;54.46;101690.97;7283519;19;152998;-82
2022/07/02 06:56:45;;;;;;;;;;;;;;;20.88;54.74;101697.47;7281869;19;154348;-82
2022/07/02 06:59:11;;;;;;;;;;;;;;;20.89;54.64;101679.50;7283717;19;151987;-82
2022/07/02 07:01:43;;;;;;;;;;;;;;;20.88;54.53;101691.84;7280894;19;153974;-82
2022/07/02 07:04:30;;;;;;;;;;;;;;;20.90;54.62;101687.59;7281392;19;155539;-82
2022/07/02 07:06:59;;;;;;;;;;;;;;;20.84;54.50;101664.38;7285869;19;152083;-82
2022/07/02 07:09:27;;;;;;;;;;;;;;;20.81;54.75;101676.16;7281629;19;155294;-82
2022/07/02 07:11:54;;;;;;;;;;;;;;;20.84;54.42;101675.59;7279301;19;152142;-81
2022/07/02 07:14:22;;;;;;;;;;;;;;;20.84;54.23;101672.78;7283283;19;152612;-81
2022/07/02 07:16:49;;;;;;;;;;;;;;;20.82;54.83;101674.19;7282391;19;153341;-83
2022/07/02 07:19:15;;;;;;;;;;;;;;;20.86;54.07;101661.25;7281261;19;152937;-82
2022/07/02 07:21:42;;;;;;;;;;;;;;;20.84;54.59;101684.03;7277960;19;153436;-82
2022/07/02 07:24:10;;;;;;;;;;;;;;;20.87;54.01;101676.97;7280143;19;153396;-82
2022/07/02 07:26:37;;;;;;;;;;;;;;;20.81;53.83;101667.75;7282562;19;151900;-81
2022/07/02 07:29:07;;;;;;;;;;;;;;;20.83;54.21;101662.69;7288205;19;153422;-82
2022/07/02 07:31:34;;;;;;;;;;;;;;;20.92;54.07;101662.88;7281197;19;151674;-81
2022/07/02 07:34:02;;;;;;;;;;;;;;;20.86;53.98;101662.09;7281437;19;153966;-81
2022/07/02 07:36:29;;;;;;;;;;;;;;;20.86;53.90;101670.50;7278556;19;153323;-82
2022/07/02 07:38:56;;;;;;;;;;;;;;;20.94;54.05;101671.84;7281000;19;151539;-82
2022/07/02 07:41:23;;;;;;;;;;;;;;;20.89;53.38;101657.03;7280273;19;153706;-82
2022/07/02 07:43:51;;;;;;;;;;;;;;;20.89;53.62;101669.09;7280970;19;154261;-81
2022/07/02 07:46:19;;;;;;;;;;;;;;;20.82;53.86;101658.19;7280367;19;152470;-81
2022/07/02 07:48:46;;;;;;;;;;;;;;;20.85;54.26;101666.03;7286538;19;154415;-82
2022/07/02 07:51:13;;;;;;;;;;;;;;;20.80;54.40;101663.25;7277383;19;152842;-81
2022/07/02 07:53:41;;;;;;;;;;;;;;;20.75;54.32;101657.69;7281970;19;152570;-81
2022/07/02 07:56:07;;;;;;;;;;;;;;;20.71;54.14;101659.41;7279926;19;153336;-81
2022/07/02 07:58:35;;;;;;;;;;;;;;;20.74;54.29;101661.63;7282578;19;152585;-81
2022/07/02 08:01:01;;;;;;;;;;;;;;;20.74;54.57;101675.66;7279303;19;152651;-81
2022/07/02 08:03:28;;;;;;;;;;;;;;;20.75;55.35;101656.84;7279413;19;153521;-81
2022/07/02 08:05:56;;;;;;;;;;;;;;;20.75;55.16;101674.53;7276652;19;152673;-80
2022/07/02 08:08:23;;;;;;;;;;;;;;;20.82;55.16;101668.56;7280280;19;153801;-81
2022/07/02 08:10:50;;;;;;;;;;;;;;;20.88;54.92;101675.00;7287172;19;154475;-80
2022/07/02 08:13:17;;;;;;;;;;;;;;;20.94;54.89;101659.78;7282638;19;153282;-81
2022/07/02 08:15:44;;;;;;;;;;;;;;;20.99;54.81;101665.34;7279825;19;153255;-81
2022/07/02 08:18:11;;;;;;;;;;;;;;;21.08;55.37;101666.38;7280521;19;152524;-81
2022/07/02 08:20:38;;;;;;;;;;;;;;;21.16;55.13;101668.63;7277428;19;153551;-81
2022/07/02 08:23:12;;;;;;;;;;;;;;;21.26;54.78;101672.16;7275690;19;153986;-81
2022/07/02 08:25:38;;;;;;;;;;;;;;;21.33;54.75;101670.97;7283673;19;154214;-81
2022/07/02 08:28:05;;;;;;;;;;;;;;;21.42;55.04;101663.56;7288084;19;152884;-81
2022/07/02 08:30:37;;;;;;;;;;;;;;;21.50;54.39;101662.91;7282154;19;154185;-81
2022/07/02 08:33:04;;;;;;;;;;;;;;;21.62;54.36;101655.75;7293869;19;152248;-81
2022/07/02 08:35:31;;;;;;;;;;;;;;;21.69;53.00;101649.78;7281856;19;153328;-81
2022/07/02 08:37:58;;;;;;;;;;;;;;;21.78;52.14;101655.56;7285797;19;152195;-82
2022/07/02 08:40:32;;;;;;;;;;;;;;;21.83;51.53;101649.88;7284427;19;152755;-81
2022/07/02 08:42:59;;;;;;;;;;;;;;;21.86;50.78;101640.84;7283147;19;154858;-81
2022/07/02 08:45:28;;;;;;;;;;;;;;;21.89;50.45;101648.69;7285450;19;152075;-82
2022/07/02 08:47:55;;;;;;;;;;;;;;;21.91;49.90;101637.97;7285411;19;153085;-80
2022/07/02 08:50:35;;;;;;;;;;;;;;;21.95;49.63;101639.91;7282092;19;154130;-82
2022/07/02 08:53:06;;;;;;;;;;;;;;;22.00;48.91;101630.56;7285670;19;152331;-82
2022/07/02 08:55:34;;;;;;;;;;;;;;;22.03;48.83;101629.97;7291044;19;153530;-82
2022/07/02 08:58:01;;;;;;;;;;;;;;;22.04;48.78;101629.66;7285209;19;152571;-81
2022/07/02 09:00:31;;;;;;;;;;;;;;;22.03;48.19;101630.78;7279541;19;153318;-81
2022/07/02 09:02:59;;;;;;;;;;;;;;;22.07;48.07;101631.88;7282741;19;154382;-81
2022/07/02 09:05:26;;;;;;;;;;;;;;;22.09;47.49;101618.31;7283265;19;152991;-82
2022/07/02 09:07:55;;;;;;;;;;;;;;;22.10;47.57;101624.78;7286350;19;151920;-82
2022/07/02 09:10:36;;;;;;;;;;;;;;;22.10;47.10;101617.19;7283144;19;152522;-82
2022/07/02 09:13:12;;;;;;;;;;;;;;;22.13;47.05;101621.38;7283086;19;153385;-82
2022/07/02 09:15:39;;;;;;;;;;;;;;;22.10;46.80;101610.72;7284238;19;152720;-81
2022/07/02 09:18:06;;;;;;;;;;;;;;;22.12;46.53;101614.09;7291013;19;153183;-81
2022/07/02 09:20:34;;;;;;;;;;;;;;;22.12;46.94;101617.72;7281363;19;154289;-82
2022/07/02 09:23:07;;;;;;;;;;;;;;;22.10;46.58;101607.91;7282340;19;153373;-82
2022/07/02 09:25:33;;;;;;;;;;;;;;;22.06;46.77;101609.66;7284210;19;152225;-82
2022/07/02 09:28:03;;;;;;;;;;;;;;;22.04;46.25;101612.75;7284001;19;153044;-82
2022/07/02 09:30:36;;;;;;;;;;;;;;;22.05;46.61;101602.34;7283215;19;154123;-82
2022/07/02 09:36:09;;;;;;;;;;;;;;;22.04;45.95;101598.69;7280257;19;153771;-81
2022/07/02 09:38:43;;;;;;;;;;;;;;;22.04;46.12;101604.31;7283809;19;153928;-82
2022/07/02 09:41:11;;;;;;;;;;;;;;;22.05;46.40;101596.72;7291464;19;151914;-82
2022/07/02 09:43:46;;;;;;;;;;;;;;;22.05;45.36;101583.50;7280302;19;153950;-82
2022/07/02 09:46:32;;;;;;;;;;;;;;;22.04;45.84;101604.31;7283024;19;154719;-81
2022/07/02 09:49:15;;;;;;;;;;;;;;;22.03;45.71;101599.00;7282474;19;152846;-82
2022/07/02 09:51:50;;;;;;;;;;;;;;;22.02;45.77;101594.53;7278731;19;153570;-82
2022/07/02 09:54:21;;;;;;;;;;;;;;;22.04;46.21;101584.63;7282573;19;152068;-82
2022/07/02 09:56:55;;;;;;;;;;;;;;;22.03;45.66;101596.19;7280918;19;152602;-82
2022/07/02 09:59:31;;;;;;;;;;;;;;;22.03;45.49;101599.00;7242367;19;154003;-82
2022/07/02 10:02:22;;;;;;;;;;;;;;;22.03;45.52;101599.00;7281916;19;154668;-81
2022/07/02 10:04:52;;;;;;;;;;;;;;;22.04;46.06;101600.66;7274803;19;153388;-82
2022/07/02 10:07:21;;;;;;;;;;;;;;;22.03;46.58;101599.81;7275064;19;152376;-82
2022/07/02 10:09:50;;;;;;;;;;;;;;;22.04;45.89;101600.66;7284887;19;153035;-81
2022/07/02 10:12:17;;;;;;;;;;;;;;;22.04;45.85;101600.66;7283119;19;154379;-82
2022/07/02 10:14:45;;;;;;;;;;;;;;;22.03;45.90;101602.63;7282127;19;152637;-82
2022/07/02 10:17:15;;;;;;;;;;;;;;;22.03;46.17;101613.09;7281479;19;153227;-82
2022/07/02 10:19:42;;;;;;;;;;;;;;;21.99;46.60;101610.03;7278714;19;153411;-82
2022/07/02 10:22:09;;;;;;;;;;;;;;;21.99;46.58;101603.53;7280549;19;152612;-82
2022/07/02 10:24:36;;;;;;;;;;;;;;;21.99;45.91;101610.03;7288041;19;153499;-83
2022/07/02 10:27:04;;;;;;;;;;;;;;;21.97;46.08;101612.31;7283824;19;151985;-81
2022/07/02 10:29:31;;;;;;;;;;;;;;;21.98;46.23;101608.38;7282795;19;153835;-79
2022/07/02 10:31:58;;;;;;;;;;;;;;;22.01;46.34;101606.91;7279002;19;153969;-81
2022/07/02 10:34:43;;;;;;;;;;;;;;;21.99;46.80;101587.50;7281513;19;153821;-81
2022/07/02 10:37:11;;;;;;;;;;;;;;;21.99;46.54;101595.94;7280257;19;153479;-80
2022/07/02 10:39:41;;;;;;;;;;;;;;;21.98;46.76;101599.94;7280050;19;153182;-81
2022/07/02 10:42:08;;;;;;;;;;;;;;;21.98;46.48;101590.66;7279879;19;152980;-81
2022/07/02 10:44:35;;;;;;;;;;;;;;;22.03;48.21;101588.56;7281112;19;153570;-79
2022/07/02 10:47:02;;;;;;;;;;;;;;;22.11;46.18;101589.88;7285248;19;152825;-81
2022/07/02 10:49:29;;;;;;;;;;;;;;;22.11;46.49;101570.19;7281131;19;153287;-81
2022/07/02 10:52:16;;;;;;;;;;;;;;;22.10;46.48;101588.22;7278143;19;153861;-81
2022/07/02 10:54:44;;;;;;;;;;;;;;;22.09;46.90;101600.59;7281068;19;152205;-80
2022/07/02 10:57:18;;;;;;;;;;;;;;;22.06;46.62;101579.53;7279306;19;152278;-81
2022/07/02 10:59:59;;;;;;;;;;;;;;;22.11;46.51;101584.25;7277782;19;155820;-80
2022/07/02 11:02:41;;;;;;;;;;;;;;;22.05;46.40;101586.31;7274668;19;153108;-81
2022/07/02 11:05:20;;;;;;;;;;;;;;;22.07;46.29;101580.38;7278862;19;153685;-81
2022/07/02 11:07:47;;;;;;;;;;;;;;;22.10;46.29;101574.13;7281217;19;154263;-81
2022/07/02 11:10:13;;;;;;;;;;;;;;;22.09;46.32;101570.47;7287504;19;152412;-81
2022/07/02 11:12:52;;;;;;;;;;;;;;;22.07;46.52;101580.38;7277667;19;152707;-80
2022/07/02 11:15:21;;;;;;;;;;;;;;;22.05;46.50;101583.50;7280010;19;153182;-80
2022/07/02 11:17:50;;;;;;;;;;;;;;;22.12;46.43;101575.50;7279574;19;153634;-82
2022/07/02 11:20:35;;;;;;;;;;;;;;;22.03;44.43;101570.88;7276730;19;152837;-82
2022/07/02 11:23:04;;;;;;;;;;;;;;;21.95;43.63;101574.34;7277436;19;152739;-82
2022/07/02 11:25:31;;;;;;;;;;;;;;;21.96;44.38;101564.78;7281915;19;153032;-83
2022/07/02 11:27:59;;;;;;;;;;;;;;;21.96;44.77;101561.97;7280808;19;152118;-84
2022/07/02 11:30:32;;;;;;;;;;;;;;;21.98;45.06;101557.72;7280525;19;152462;-82
2022/07/02 11:32:59;;;;;;;;;;;;;;;21.98;44.98;101563.34;7288574;19;152700;-82
2022/07/02 11:35:26;;;;;;;;;;;;;;;22.01;44.86;101556.25;7277491;19;152422;-82
2022/07/02 11:37:57;;;;;;;;;;;;;;;22.04;45.43;101552.81;7277369;19;152884;-84
2022/07/02 11:40:35;;;;;;;;;;;;;;;22.04;45.30;101548.03;7276339;19;152742;-82
2022/07/02 11:43:12;;;;;;;;;;;;;;;22.04;45.34;101538.75;7279734;19;151911;-82
2022/07/02 11:45:43;;;;;;;;;;;;;;;22.04;45.36;101561.28;7279992;19;152965;-82
2022/07/02 11:48:22;;;;;;;;;;;;;;;22.02;45.18;101557.94;7278465;19;154108;-82
2022/07/02 11:50:56;;;;;;;;;;;;;;;21.99;45.56;101547.28;7278284;19;152356;-82
2022/07/02 11:53:26;;;;;;;;;;;;;;;21.98;45.63;101556.88;7279360;19;153009;-82
2022/07/02 11:56:03;;;;;;;;;;;;;;;21.95;45.28;101547.03;7288091;19;151932;-82
2022/07/02 11:58:39;;;;;;;;;;;;;;;21.95;45.51;101551.84;7279633;19;155471;-81
2022/07/02 12:01:16;;;;;;;;;;;;;;;21.94;45.44;101542.56;7285708;19;153578;-82
2022/07/02 12:03:44;;;;;;;;;;;;;;;21.89;45.43;101542.63;7283268;19;152702;-82
2022/07/02 12:06:11;;;;;;;;;;;;;;;21.89;45.69;101539.81;7281421;19;152801;-82
2022/07/02 12:08:39;;;;;;;;;;;;;;;21.91;45.40;101545.94;7286795;19;154405;-83
2022/07/02 12:11:15;;;;;;;;;;;;;;;21.92;45.84;101543.97;7289329;19;152035;-82
2022/07/02 12:13:43;;;;;;;;;;;;;;;21.93;45.76;101557.78;7286353;19;153194;-82
2022/07/02 12:16:14;;;;;;;;;;;;;;;21.94;45.62;101555.81;7291560;19;154247;-81
2022/07/02 12:18:41;;;;;;;;;;;;;;;21.96;45.63;101556.34;7286662;19;156069;-82
2022/07/02 12:21:12;;;;;;;;;;;;;;;21.95;45.66;101541.41;7282357;19;153525;-82
2022/07/02 12:23:47;;;;;;;;;;;;;;;21.94;45.91;101536.13;7287048;19;153054;-83
2022/07/02 12:26:22;;;;;;;;;;;;;;;21.92;45.51;101538.34;7287441;19;152781;-82
2022/07/02 12:31:45;;;;;;;;;;;;;;;21.89;45.75;101527.72;7286977;19;151771;-82
2022/07/02 12:34:12;;;;;;;;;;;;;;;21.89;45.96;101536.16;7286438;19;152931;-82
2022/07/02 12:36:45;;;;;;;;;;;;;;;21.87;45.95;101532.78;7283628;19;153233;-81
2022/07/02 12:39:12;;;;;;;;;;;;;;;21.88;46.03;101526.03;7296600;19;152664;-82
2022/07/02 12:41:39;;;;;;;;;;;;;;;21.89;45.79;101527.72;7287165;19;156735;-82
2022/07/02 12:44:06;;;;;;;;;;;;;;;21.89;45.95;101531.38;7282692;19;152237;-82
2022/07/02 12:46:41;;;;;;;;;;;;;;;21.90;45.97;101529.38;7287572;19;152909;-82